Time;durP1;ratioP1;P1;durP2;ratioP2;P2;SDS_P1;SDS_P2;PMS_P1;PMS_P2;Temp;Humidity;BMP_temperature;BMP_pressure;BME280_temperature;BME280_humidity;BME280_pressure;Samples;Min_cycle;Max_cycle;Signal;HPM_P1;HPM_P2
2021/12/29 00:00:27;;;;;;;;;41.25;33.00;;;;;12.69;77.52;100331.09;146602;569;47008;-79
2021/12/29 00:03:19;;;;;;;;;31.50;29.75;;;;;12.70;77.70;100337.19;146600;563;46016;-80
2021/12/29 00:06:12;;;;;;;;;40.00;33.25;;;;;12.72;78.01;100335.53;146602;597;46008;-78
2021/12/29 00:09:04;;;;;;;;;45.00;37.50;;;;;12.71;77.76;100329.44;146598;580;46016;-90
2021/12/29 00:11:57;;;;;;;;;44.75;35.50;;;;;12.74;77.65;100339.09;146602;699;46008;-88
2021/12/29 00:14:48;;;;;;;;;42.50;35.00;;;;;12.75;78.09;100333.03;146599;610;46025;-89
2021/12/29 00:17:42;;;;;;;;;34.25;28.25;;;;;12.72;78.02;100335.53;146605;575;46020;-91
2021/12/29 00:20:36;;;;;;;;;32.00;29.25;;;;;12.71;77.80;100331.19;146598;606;47017;-82
2021/12/29 00:23:28;;;;;;;;;34.25;28.75;;;;;12.71;77.70;100329.44;146600;605;46027;-86
2021/12/29 00:26:20;;;;;;;;;48.25;40.75;;;;;12.70;77.81;100331.97;146596;634;46016;-86
2021/12/29 00:29:14;;;;;;;;;49.75;39.25;;;;;12.71;77.61;100328.56;146604;577;46020;-84
2021/12/29 00:32:06;;;;;;;;;37.50;32.25;;;;;12.68;77.62;100331.06;146598;593;46016;-81
2021/12/29 00:34:59;;;;;;;;;33.00;29.00;;;;;12.67;77.38;100332.75;146604;637;46008;-78
2021/12/29 00:37:51;;;;;;;;;47.50;39.50;;;;;12.65;77.55;100324.03;146597;620;47012;-84
2021/12/29 00:40:44;;;;;;;;;43.25;35.00;;;;;12.63;77.43;100330.00;146602;591;47008;-87
2021/12/29 00:43:37;;;;;;;;;39.50;32.00;;;;;12.63;77.69;100328.28;146598;609;46012;-84
2021/12/29 00:46:29;;;;;;;;;33.50;30.00;;;;;12.63;78.15;100322.19;146601;580;46914;-82
2021/12/29 00:49:21;;;;;;;;;33.25;29.50;;;;;12.62;77.98;100329.13;146598;647;46917;-83
2021/12/29 00:52:14;;;;;;;;;42.25;32.75;;;;;12.60;77.64;100322.09;146601;581;46008;-83
2021/12/29 00:55:07;;;;;;;;;39.50;32.00;;;;;12.61;77.53;100321.25;146599;643;46917;-85
2021/12/29 00:57:59;;;;;;;;;43.00;33.75;;;;;12.60;78.12;100322.97;146603;615;47008;-83
2021/12/29 01:00:52;;;;;;;;;30.25;26.50;;;;;12.59;77.80;100323.81;146601;595;46016;-83
2021/12/29 01:03:44;;;;;;;;;25.50;22.25;;;;;12.57;78.40;100316.78;146603;587;46008;-83
2021/12/29 01:06:36;;;;;;;;;23.25;20.75;;;;;12.56;78.07;100323.69;146599;697;46016;-81
2021/12/29 01:09:28;;;;;;;;;27.00;24.00;;;;;12.56;78.25;100325.41;146602;577;46020;-77
2021/12/29 01:12:21;;;;;;;;;18.75;18.50;;;;;12.53;78.53;100320.09;146600;582;46010;-77
2021/12/29 01:15:16;;;;;;;;;22.50;21.00;;;;;12.53;78.56;100317.50;146602;573;46008;-74
2021/12/29 01:18:10;;;;;;;;;22.50;19.00;;;;;12.53;78.23;100320.97;146599;577;46010;-81
2021/12/29 01:21:02;;;;;;;;;28.25;23.75;;;;;12.51;78.08;100316.53;146598;630;47010;-81
2021/12/29 01:23:54;;;;;;;;;29.00;22.50;;;;;12.49;78.31;100308.66;146599;599;46917;-81
2021/12/29 01:26:47;;;;;;;;;23.00;21.00;;;;;12.48;78.39;100310.38;146601;600;47008;-80
2021/12/29 01:29:41;;;;;;;;;22.00;17.50;;;;;12.48;77.87;100307.78;146598;591;46017;-90
2021/12/29 01:32:34;;;;;;;;;25.75;24.25;;;;;12.50;77.86;100305.25;146605;679;45020;-74
2021/12/29 01:35:26;;;;;;;;;29.00;23.50;;;;;12.52;78.11;100310.50;146599;564;46016;-75
2021/12/29 01:38:19;;;;;;;;;23.75;19.50;;;;;12.50;77.75;100307.84;146599;573;47008;-76
2021/12/29 01:41:11;;;;;;;;;19.75;18.75;;;;;12.44;79.69;100300.72;146599;571;46016;-79
2021/12/29 01:44:03;;;;;;;;;23.25;23.25;;;;;12.32;79.84;100289.84;146601;571;46020;-80
2021/12/29 01:46:58;;;;;;;;;27.00;25.25;;;;;12.22;78.84;100287.75;146596;564;47010;-84
2021/12/29 01:49:51;;;;;;;;;27.75;27.50;;;;;12.18;78.92;100299.75;146602;571;46021;-83
2021/12/29 01:52:51;;;;;;;;;32.00;30.25;;;;;12.19;78.91;100293.72;146599;581;47010;-80
2021/12/29 01:55:44;;;;;;;;;29.25;26.75;;;;;12.23;78.49;100276.50;146603;589;46020;-89
2021/12/29 01:58:36;;;;;;;;;27.00;23.50;;;;;12.26;78.28;100274.03;146601;581;46010;-78
2021/12/29 02:01:29;;;;;;;;;29.50;25.25;;;;;12.33;78.85;100277.75;146600;593;47008;-81
2021/12/29 02:04:21;;;;;;;;;24.00;21.50;;;;;12.35;79.31;100287.38;146598;588;47010;-85
2021/12/29 02:07:15;;;;;;;;;29.50;27.25;;;;;12.34;78.97;100293.41;146605;563;46020;-85
2021/12/29 02:10:08;;;;;;;;;22.75;19.75;;;;;12.35;78.60;100296.88;146598;572;46029;-85
2021/12/29 02:13:03;;;;;;;;;25.50;24.25;;;;;12.35;78.18;100286.50;146599;617;47008;-77
2021/12/29 02:15:55;;;;;;;;;27.75;25.50;;;;;12.38;77.90;100286.59;146603;602;45916;-79
2021/12/29 02:18:57;;;;;;;;;30.50;26.50;;;;;12.39;77.92;100289.25;146603;569;46010;-81
2021/12/29 02:25:33;;;;;;;;;34.00;29.50;;;;;12.42;77.90;100293.69;146603;588;46022;-78
2021/12/29 02:28:36;;;;;;;;;34.00;29.50;;;;;12.40;78.01;100292.75;146595;590;47012;-81
2021/12/29 02:31:29;;;;;;;;;33.00;29.25;;;;;12.35;78.24;100297.78;146602;711;46020;-83
2021/12/29 02:34:21;;;;;;;;;34.75;28.75;;;;;12.30;78.17;100301.91;146601;631;46016;-87
2021/12/29 02:37:19;;;;;;;;;33.25;28.75;;;;;12.27;77.91;100299.19;146601;616;46021;-87
2021/12/29 02:40:13;;;;;;;;;31.00;28.50;;;;;12.27;78.04;100293.09;146599;584;46010;-87
2021/12/29 02:43:06;;;;;;;;;32.25;28.00;;;;;12.29;78.34;100287.13;146601;638;46020;-88
2021/12/29 02:45:59;;;;;;;;;33.00;29.50;;;;;12.32;78.42;100292.47;146599;611;46016;-88
2021/12/29 02:48:59;;;;;;;;;31.25;26.50;;;;;12.32;77.93;100279.47;146597;575;47008;-89
2021/12/29 02:51:51;;;;;;;;;31.25;28.50;;;;;12.35;77.87;100276.09;146599;643;47010;-84
2021/12/29 02:54:44;;;;;;;;;36.75;30.75;;;;;12.34;77.69;100274.34;146603;575;46029;-78
2021/12/29 02:57:37;;;;;;;;;35.00;30.00;;;;;12.34;77.87;100275.22;146597;565;46016;-80
2021/12/29 03:00:29;;;;;;;;;32.00;30.25;;;;;12.34;78.32;100272.62;146603;566;46020;-82
2021/12/29 03:03:30;;;;;;;;;30.75;29.25;;;;;12.33;78.09;100276.03;146599;582;46016;-76
2021/12/29 03:06:23;;;;;;;;;38.25;28.75;;;;;12.33;78.59;100272.53;146603;591;46008;-79
2021/12/29 03:09:17;;;;;;;;;32.50;29.00;;;;;12.33;78.56;100276.03;146599;588;47918;-80
2021/12/29 03:12:10;;;;;;;;;37.50;30.00;;;;;12.36;78.56;100289.13;146603;578;46020;-79
2021/12/29 03:15:02;;;;;;;;;32.00;26.25;;;;;12.37;78.24;100279.66;146600;625;46012;-81
2021/12/29 03:17:54;;;;;;;;;27.25;23.25;;;;;12.40;77.94;100284.97;146600;593;46008;-77
2021/12/29 03:20:47;;;;;;;;;21.50;18.00;;;;;12.42;78.22;100284.16;146600;576;46021;-78
2021/12/29 03:23:39;;;;;;;;;23.25;20.50;;;;;12.43;77.78;100285.06;146603;575;46021;-83
2021/12/29 03:26:31;;;;;;;;;25.75;24.75;;;;;12.44;77.91;100289.44;146600;573;46016;-85
2021/12/29 03:29:23;;;;;;;;;32.00;26.75;;;;;12.43;77.63;100288.56;146603;570;46021;-83
2021/12/29 03:32:32;;;;;;;;;30.25;23.75;;;;;12.43;77.58;100293.75;146600;582;46016;-87
2021/12/29 03:35:25;;;;;;;;;30.50;25.50;;;;;12.44;77.80;100282.50;146605;698;45021;-85
2021/12/29 03:38:21;;;;;;;;;29.50;27.00;;;;;12.44;77.71;100274.72;146599;603;46016;-83
2021/12/29 03:41:16;;;;;;;;;32.00;28.00;;;;;12.42;78.04;100273.75;146600;573;47008;-81
2021/12/29 03:44:09;;;;;;;;;30.25;29.00;;;;;12.42;77.90;100263.34;146600;597;46016;-80
2021/12/29 03:47:01;;;;;;;;;27.75;26.00;;;;;12.40;77.92;100249.44;146603;594;46008;-82
2021/12/29 03:49:54;;;;;;;;;30.00;26.25;;;;;12.36;78.71;100236.25;146598;591;46016;-82
2021/12/29 03:52:46;;;;;;;;;30.00;24.25;;;;;12.30;78.18;100228.22;146599;592;47008;-82
2021/12/29 03:55:39;;;;;;;;;27.50;23.00;;;;;12.24;78.15;100228.88;146598;608;46016;-81
2021/12/29 03:58:32;;;;;;;;;36.50;30.75;;;;;12.24;78.74;100229.81;146601;674;47010;-81
2021/12/29 04:01:25;;;;;;;;;26.75;25.25;;;;;12.25;78.77;100223.75;146601;603;46016;-83
2021/12/29 04:04:18;;;;;;;;;25.50;23.75;;;;;12.25;78.88;100221.16;146605;597;46020;-88
2021/12/29 04:07:10;;;;;;;;;22.75;19.25;;;;;12.27;78.92;100218.59;146597;579;47010;-87
2021/12/29 04:10:03;;;;;;;;;22.25;22.25;;;;;12.27;79.14;100216.00;146602;569;46020;-88
2021/12/29 04:12:55;;;;;;;;;20.50;18.25;;;;;12.27;78.32;100205.59;146598;636;46016;-87
2021/12/29 04:15:49;;;;;;;;;19.00;17.75;;;;;12.28;78.64;100203.91;146598;603;47010;-88
2021/12/29 04:18:55;;;;;;;;;19.50;18.00;;;;;12.28;79.02;100197.00;146598;598;46010;-90
2021/12/29 04:21:50;;;;;;;;;17.50;16.00;;;;;12.30;78.83;100194.44;146605;748;45021;-79
2021/12/29 04:24:42;;;;;;;;;24.00;21.00;;;;;12.30;78.42;100184.91;146602;686;46016;-77
2021/12/29 04:27:35;;;;;;;;;20.00;15.75;;;;;12.32;78.23;100193.66;146603;608;46020;-81
2021/12/29 04:30:28;;;;;;;;;18.25;16.00;;;;;12.33;78.31;100189.34;146596;564;47010;-79
2021/12/29 04:33:22;;;;;;;;;20.25;18.00;;;;;12.31;78.90;100193.63;146602;580;47008;-79
2021/12/29 04:36:14;;;;;;;;;21.25;19.25;;;;;12.30;78.52;100197.03;146600;632;46917;-87
2021/12/29 04:39:08;;;;;;;;;18.00;17.75;;;;;12.29;78.22;100196.16;146601;569;46008;-78
2021/12/29 04:42:00;;;;;;;;;20.75;20.75;;;;;12.29;78.18;100200.47;146598;601;46016;-80
2021/12/29 04:44:53;;;;;;;;;24.50;20.75;;;;;12.27;78.19;100200.41;146599;615;47008;-79
2021/12/29 04:47:47;;;;;;;;;21.00;16.75;;;;;12.25;78.02;100209.87;146597;620;46016;-84
2021/12/29 04:50:40;;;;;;;;;17.50;16.25;;;;;12.24;78.34;100209.00;146603;584;46008;-86
2021/12/29 04:53:32;;;;;;;;;21.00;19.75;;;;;12.22;78.50;100212.38;146597;623;47010;-79
2021/12/29 04:56:24;;;;;;;;;20.25;19.75;;;;;12.16;79.08;100214.75;146601;602;47008;-82
2021/12/29 04:59:17;;;;;;;;;25.50;22.00;;;;;12.00;78.85;100198.59;146600;569;46012;-87
2021/12/29 05:02:09;;;;;;;;;22.50;21.00;;;;;12.07;79.31;100219.59;146602;563;46008;-86
2021/12/29 05:05:11;;;;;;;;;20.00;18.50;;;;;12.02;78.99;100214.22;146599;598;46010;-89
2021/12/29 05:11:31;;;;;;;;;32.00;30.00;;;;;11.90;80.67;100214.66;146600;587;46016;-90
2021/12/29 05:14:23;;;;;;;;;30.75;28.25;;;;;11.87;80.05;100213.66;146602;564;46020;-82
2021/12/29 05:17:16;;;;;;;;;32.25;28.75;;;;;11.85;79.75;100212.72;146596;579;47010;-84
2021/12/29 05:20:09;;;;;;;;;28.75;24.50;;;;;11.85;80.27;100208.41;146602;573;46021;-88
2021/12/29 05:23:02;;;;;;;;;22.25;20.00;;;;;11.85;80.35;100211.00;146598;609;46917;-87
2021/12/29 05:25:55;;;;;;;;;24.75;21.50;;;;;11.83;81.10;100204.81;146603;599;47008;-90
2021/12/29 05:28:47;;;;;;;;;21.00;19.25;;;;;11.82;80.67;100202.19;146598;581;46016;-89
2021/12/29 05:31:40;;;;;;;;;25.25;22.25;;;;;11.79;80.94;100197.75;146600;609;47008;-73
2021/12/29 05:34:32;;;;;;;;;21.50;19.25;;;;;11.78;80.47;100194.28;146600;565;46017;-74
2021/12/29 05:37:24;;;;;;;;;26.75;21.00;;;;;11.78;80.10;100199.47;146603;578;46008;-74
2021/12/29 05:40:17;;;;;;;;;26.25;24.00;;;;;11.83;80.33;100219.53;146599;592;46029;-74
2021/12/29 05:43:09;;;;;;;;;35.50;30.50;;;;;11.88;80.06;100228.44;146603;600;46020;-77
2021/12/29 05:46:01;;;;;;;;;33.25;28.25;;;;;11.90;80.08;100238.06;146599;575;46917;-85
2021/12/29 05:48:54;;;;;;;;;30.25;28.75;;;;;11.92;79.80;100232.91;146603;594;46020;-82
2021/12/29 05:51:46;;;;;;;;;35.50;31.25;;;;;11.98;79.52;100244.41;146600;582;46016;-82
2021/12/29 05:54:38;;;;;;;;;39.50;33.00;;;;;12.01;79.74;100236.72;146602;579;46020;-84
2021/12/29 05:57:30;;;;;;;;;34.00;29.75;;;;;12.05;79.85;100234.25;146598;575;46017;-79
2021/12/29 06:00:26;;;;;;;;;37.00;29.75;;;;;12.06;79.99;100243.84;146601;569;47008;-78
2021/12/29 06:03:20;;;;;;;;;38.75;32.25;;;;;12.02;79.96;100248.00;146597;564;47010;-79
2021/12/29 06:06:12;;;;;;;;;34.75;28.25;;;;;11.98;80.11;100249.59;146598;586;47008;-77
2021/12/29 06:09:05;;;;;;;;;33.50;29.00;;;;;11.98;79.66;100254.78;146596;566;46016;-79
2021/12/29 06:11:57;;;;;;;;;26.00;23.25;;;;;12.00;79.61;100267.87;146601;577;46021;-85
2021/12/29 06:14:50;;;;;;;;;36.25;29.25;;;;;12.02;80.05;100272.31;146600;615;46016;-87
2021/12/29 06:17:43;;;;;;;;;38.00;31.75;;;;;12.08;79.94;100276.81;146604;571;46020;-84
2021/12/29 06:20:38;;;;;;;;;36.75;30.00;;;;;12.11;79.30;100287.31;146597;601;46016;-76
2021/12/29 06:23:30;;;;;;;;;44.50;36.25;;;;;12.14;79.53;100286.56;146601;571;46020;-75
2021/12/29 06:26:23;;;;;;;;;46.75;38.25;;;;;12.15;79.73;100280.53;146596;634;47917;-81
2021/12/29 06:29:15;;;;;;;;;48.75;38.25;;;;;12.16;79.71;100284.91;146602;688;46020;-87
2021/12/29 06:32:08;;;;;;;;;64.25;50.25;;;;;12.18;79.77;100294.56;146597;635;46016;-90
2021/12/29 06:35:00;;;;;;;;;55.00;44.00;;;;;12.19;79.45;100298.03;146601;581;47010;-81
2021/12/29 06:37:53;;;;;;;;;53.50;44.25;;;;;12.22;79.58;100300.75;146599;626;46016;-80
2021/12/29 06:40:45;;;;;;;;;56.25;42.25;;;;;12.23;80.16;100294.72;146601;609;46021;-80
2021/12/29 06:43:37;;;;;;;;;57.00;44.75;;;;;12.23;80.86;100289.50;146598;569;47010;-81
2021/12/29 06:46:29;;;;;;;;;48.75;39.50;;;;;12.19;80.67;100291.13;146603;674;46020;-87
2021/12/29 06:49:22;;;;;;;;;37.50;32.00;;;;;12.19;80.49;100295.44;146601;638;46016;-86
2021/12/29 06:52:15;;;;;;;;;43.75;35.50;;;;;12.19;79.91;100295.44;146601;638;46008;-76
2021/12/29 06:55:08;;;;;;;;;41.00;35.75;;;;;12.21;80.62;100281.69;146599;583;46016;-77
2021/12/29 06:58:00;;;;;;;;;47.50;37.75;;;;;12.25;80.06;100274.87;146605;575;46020;-73
2021/12/29 07:00:52;;;;;;;;;51.75;40.25;;;;;12.32;79.90;100281.19;146600;611;46016;-76
2021/12/29 07:03:44;;;;;;;;;59.75;46.75;;;;;12.40;79.91;100284.97;146599;607;46021;-77
2021/12/29 07:06:37;;;;;;;;;50.50;41.00;;;;;12.48;79.96;100286.97;146599;588;46016;-78
2021/12/29 07:09:29;;;;;;;;;52.25;42.50;;;;;12.58;80.25;100292.53;146602;676;46008;-78
2021/12/29 07:12:21;;;;;;;;;44.75;37.75;;;;;12.66;80.43;100293.69;146598;599;46016;-88
2021/12/29 07:15:14;;;;;;;;;44.50;35.75;;;;;12.73;80.13;100290.47;146603;592;45915;-83
2021/12/29 07:18:07;;;;;;;;;43.00;34.25;;;;;12.82;80.09;100290.78;146599;624;46011;-83
2021/12/29 07:21:00;;;;;;;;;42.75;35.50;;;;;12.88;79.67;100298.81;146600;569;47008;-82
2021/12/29 07:23:54;;;;;;;;;39.50;33.25;;;;;12.93;79.32;100301.59;146599;604;46012;-81
2021/12/29 07:26:46;;;;;;;;;37.00;33.25;;;;;13.02;79.45;100301.00;146602;601;46021;-82
2021/12/29 07:29:38;;;;;;;;;41.00;31.50;;;;;13.09;79.00;100295.19;146600;618;46016;-84
2021/12/29 07:32:31;;;;;;;;;53.00;43.50;;;;;13.16;78.93;100291.97;146599;659;47008;-84
2021/12/29 07:35:24;;;;;;;;;48.00;38.50;;;;;13.22;78.75;100293.91;146599;564;46010;-77
2021/12/29 07:38:16;;;;;;;;;41.75;36.00;;;;;13.26;78.81;100291.47;146599;683;46020;-78
2021/12/29 07:41:09;;;;;;;;;49.00;39.00;;;;;13.24;78.35;100282.69;146598;590;46017;-79
2021/12/29 07:44:03;;;;;;;;;36.50;31.50;;;;;13.25;78.30;100281.91;146603;565;46008;-80
2021/12/29 07:46:58;;;;;;;;;33.25;28.50;;;;;13.26;79.08;100274.97;146597;595;46016;-82
2021/12/29 07:49:50;;;;;;;;;31.50;28.00;;;;;13.23;79.02;100270.50;146602;566;46020;-80
2021/12/29 07:52:47;;;;;;;;;29.00;27.50;;;;;13.23;78.50;100267.00;146599;597;46016;-79
2021/12/29 07:55:39;;;;;;;;;28.75;25.00;;;;;13.25;78.53;100268.88;146600;578;47008;-80
2021/12/29 07:58:31;;;;;;;;;30.50;28.75;;;;;13.28;78.55;100270.69;146598;576;46917;-80
2021/12/29 08:01:24;;;;;;;;;38.75;32.50;;;;;13.31;78.77;100255.19;146600;670;46020;-79
2021/12/29 08:04:21;;;;;;;;;32.00;29.75;;;;;13.35;78.62;100260.53;146599;628;46010;-80
2021/12/29 08:07:14;;;;;;;;;33.00;31.00;;;;;13.40;78.30;100256.34;146601;593;46020;-79
2021/12/29 08:10:07;;;;;;;;;28.75;28.00;;;;;13.49;78.80;100254.88;146601;595;46010;-78
2021/12/29 08:12:59;;;;;;;;;27.75;25.75;;;;;13.57;78.90;100251.66;146602;601;46008;-78
2021/12/29 08:15:51;;;;;;;;;29.00;26.50;;;;;13.66;78.61;100248.47;146598;566;46010;-80
2021/12/29 08:18:44;;;;;;;;;30.00;25.25;;;;;13.76;78.37;100247.91;146600;594;47008;-81
2021/12/29 08:21:36;;;;;;;;;27.25;24.00;;;;;13.80;77.69;100255.00;146597;613;48917;-78
2021/12/29 08:24:28;;;;;;;;;28.25;25.50;;;;;13.83;77.53;100252.50;146599;691;47029;-84
2021/12/29 08:27:21;;;;;;;;;39.50;30.00;;;;;13.86;77.56;100263.03;146598;611;46031;-83
2021/12/29 08:30:14;;;;;;;;;34.50;31.50;;;;;13.88;77.38;100262.16;146602;660;46020;-85
2021/12/29 08:33:06;;;;;;;;;41.00;32.00;;;;;13.89;77.36;100262.19;146599;564;46010;-77
2021/12/29 08:35:58;;;;;;;;;33.00;28.75;;;;;13.89;76.99;100248.28;146601;565;46020;-76
2021/12/29 08:38:51;;;;;;;;;36.00;30.75;;;;;13.90;77.17;100260.50;146597;564;47012;-78
2021/12/29 08:41:43;;;;;;;;;33.50;31.75;;;;;13.92;76.84;100258.81;146601;590;47008;-73
2021/12/29 08:44:35;;;;;;;;;36.25;30.50;;;;;13.96;76.80;100252.88;146597;610;46034;-71
2021/12/29 08:47:28;;;;;;;;;33.25;29.75;;;;;14.02;76.57;100253.94;146602;600;46020;-75
2021/12/29 08:50:21;;;;;;;;;26.50;25.00;;;;;14.05;76.39;100250.53;146599;569;46917;-76
2021/12/29 08:53:15;;;;;;;;;10.25;6.50;;;;;14.11;76.36;100248.09;146602;594;47008;-74
2021/12/29 08:56:08;;;;;;;;;27.50;26.00;;;;;14.18;76.17;100244.84;146599;571;46016;-77
2021/12/29 08:59:01;;;;;;;;;31.50;29.00;;;;;14.24;76.37;100238.91;146600;563;46020;-86
2021/12/29 09:01:54;;;;;;;;;36.50;31.25;;;;;14.36;76.35;100241.88;146600;574;46017;-83
2021/12/29 09:04:46;;;;;;;;;28.00;26.50;;;;;14.46;75.95;100245.62;146604;576;46020;-84
2021/12/29 09:07:39;;;;;;;;;33.50;30.50;;;;;14.52;75.63;100230.19;146599;591;46016;-80
2021/12/29 09:10:31;;;;;;;;;39.25;32.00;;;;;14.60;75.45;100225.16;146601;569;46021;-74
2021/12/29 09:13:23;;;;;;;;;39.50;33.25;;;;;14.68;75.09;100221.03;146600;586;46025;-78
2021/12/29 09:16:16;;;;;;;;;25.00;19.75;;;;;13.75;75.80;100042.03;146601;599;47008;-75
2021/12/29 09:19:12;;;;;;;;;29.25;24.00;;;;;14.89;74.86;100216.37;146597;610;47010;-74
2021/12/29 09:22:04;;;;;;;;;24.00;23.00;;;;;14.96;74.65;100205.22;146602;572;46020;-73
2021/12/29 09:24:57;;;;;;;;;45.50;32.50;;;;;15.04;74.40;100204.53;146600;589;46016;-72
2021/12/29 09:27:50;;;;;;;;;41.75;34.75;;;;;15.06;74.47;100205.47;146603;605;46020;-71
2021/12/29 09:30:44;;;;;;;;;32.75;31.00;;;;;14.99;73.85;100199.22;146600;585;46016;-71
2021/12/29 09:33:38;;;;;;;;;43.75;35.00;;;;;14.95;74.67;100193.03;146594;574;47008;-72
2021/12/29 09:36:30;;;;;;;;;38.00;32.75;;;;;14.94;74.55;100186.03;146599;644;46016;-72
2021/12/29 09:39:24;;;;;;;;;31.75;28.75;;;;;14.89;74.64;100190.28;146602;627;47008;-72
2021/12/29 09:42:16;;;;;;;;;45.75;37.00;;;;;14.81;74.90;100183.97;146599;596;46016;-71
2021/12/29 09:45:10;;;;;;;;;42.50;34.00;;;;;14.77;75.23;100182.13;146602;589;46020;-72
2021/12/29 09:48:03;;;;;;;;;37.50;30.25;;;;;14.76;75.36;100159.47;146596;583;46016;-72
2021/12/29 09:50:55;;;;;;;;;36.75;31.50;;;;;14.79;75.01;100159.53;146602;581;47008;-72
2021/12/29 09:53:48;;;;;;;;;34.00;28.50;;;;;14.84;75.14;100157.94;146600;578;46918;-72
2021/12/29 09:56:41;;;;;;;;;37.00;32.75;;;;;14.92;74.79;100156.41;146603;623;46020;-72
2021/12/29 09:59:33;;;;;;;;;38.75;32.00;;;;;15.00;74.72;100146.13;146598;632;46016;-72
2021/12/29 10:02:26;;;;;;;;;35.75;31.25;;;;;15.08;74.91;100146.31;146601;629;46008;-72
2021/12/29 10:05:18;;;;;;;;;34.50;31.25;;;;;15.12;75.35;100149.03;146601;571;46016;-73
2021/12/29 10:08:15;;;;;;;;;43.75;35.00;;;;;15.13;75.37;100148.19;146600;588;46009;-73
2021/12/29 10:11:19;;;;;;;;;42.50;35.75;;;;;15.12;74.88;100148.16;146599;609;45916;-70
2021/12/29 10:14:16;;;;;;;;;37.75;31.75;;;;;15.01;75.41;100153.13;146601;564;47008;-71
2021/12/29 10:17:16;;;;;;;;;37.75;32.00;;;;;14.90;74.80;100146.78;146598;564;46017;-71
2021/12/29 10:20:15;;;;;;;;;34.00;30.50;;;;;14.86;75.51;100144.91;146603;616;46020;-71
2021/12/29 10:23:07;;;;;;;;;45.00;34.25;;;;;14.91;75.74;100132.88;146598;612;46917;-71
2021/12/29 10:26:08;;;;;;;;;37.50;30.25;;;;;14.96;75.46;100126.91;146602;647;46008;-72
2021/12/29 10:29:03;;;;;;;;;30.75;26.25;;;;;15.10;75.29;100118.50;146599;583;46016;-70
2021/12/29 10:32:06;;;;;;;;;34.25;28.50;;;;;15.34;74.62;100129.53;146600;630;46021;-72
2021/12/29 10:34:59;;;;;;;;;27.00;25.75;;;;;15.57;74.19;100132.63;146598;628;46010;-71
2021/12/29 10:37:52;;;;;;;;;26.50;21.00;;;;;15.74;73.89;100119.97;146604;588;46008;-70
2021/12/29 10:40:44;;;;;;;;;31.50;28.00;;;;;15.92;73.11;100130.81;146600;581;46010;-71
2021/12/29 10:43:36;;;;;;;;;34.25;30.50;;;;;15.99;72.70;100128.31;146600;583;47008;-71
2021/12/29 10:46:31;;;;;;;;;33.75;28.50;;;;;16.00;72.58;100124.84;146596;597;47010;-72
2021/12/29 10:49:24;;;;;;;;;30.75;28.00;;;;;16.05;72.50;100120.59;146603;569;46020;-70
2021/12/29 10:52:16;;;;;;;;;35.00;31.00;;;;;16.10;71.96;100111.94;146600;621;46010;-71
2021/12/29 10:55:34;;;;;;;;;37.25;29.75;;;;;16.12;72.01;100101.53;146604;592;46020;-72
2021/12/29 10:58:29;;;;;;;;;28.00;25.50;;;;;16.17;72.22;100100.78;146598;732;47010;-72
2021/12/29 11:01:21;;;;;;;;;34.25;31.00;;;;;16.30;71.78;100101.87;146599;592;47008;-72
2021/12/29 11:04:16;;;;;;;;;30.50;26.50;;;;;16.34;71.19;100093.22;146598;618;46016;-71
2021/12/29 11:07:10;;;;;;;;;32.00;30.50;;;;;16.34;71.73;100098.44;146604;668;46008;-71
2021/12/29 11:10:31;;;;;;;;;31.75;27.50;;;;;15.27;71.25;99928.25;146599;643;46010;-71
2021/12/29 11:13:31;;;;;;;;;26.00;25.25;;;;;16.20;71.63;100092.09;146602;614;46022;-71
2021/12/29 11:16:23;;;;;;;;;30.25;27.25;;;;;16.20;71.71;100085.97;146600;564;46016;-70
2021/12/29 11:19:16;;;;;;;;;27.00;20.50;;;;;16.27;71.39;100083.50;146605;604;45020;-71
2021/12/29 11:22:14;;;;;;;;;19.50;19.50;;;;;16.39;71.08;100080.22;146596;618;47013;-71
2021/12/29 11:25:08;;;;;;;;;22.25;22.25;;;;;16.48;71.06;100088.25;146603;573;46020;-71
2021/12/29 11:28:03;;;;;;;;;21.75;18.75;;;;;16.57;70.23;100080.56;146597;624;46016;-70
2021/12/29 11:30:56;;;;;;;;;21.00;17.50;;;;;16.58;69.94;100071.84;146600;599;46008;-72
2021/12/29 11:33:48;;;;;;;;;15.50;14.50;;;;;16.73;70.42;100068.59;146598;573;46917;-71
2021/12/29 11:36:41;;;;;;;;;21.25;18.50;;;;;17.11;70.00;100062.19;146602;674;46021;-70
2021/12/29 11:39:35;;;;;;;;;16.50;14.50;;;;;17.55;68.55;100058.41;146598;579;46016;-72
2021/12/29 11:42:28;;;;;;;;;12.50;12.00;;;;;17.95;66.59;100045.78;146602;569;46008;-71
2021/12/29 11:45:21;;;;;;;;;12.25;10.75;;;;;18.15;65.72;100045.97;146598;589;46017;-72
2021/12/29 11:48:15;;;;;;;;;16.00;16.00;;;;;18.21;65.51;100053.03;146604;573;46008;-71
2021/12/29 11:51:08;;;;;;;;;13.75;13.00;;;;;18.11;64.40;100035.44;146601;596;46010;-70
2021/12/29 11:54:09;;;;;;;;;10.33;10.33;;;;;17.90;64.40;100038.72;146603;628;46020;-72
2021/12/29 11:57:01;;;;;;;;;11.00;11.00;;;;;17.68;64.88;100029.72;146599;687;46016;-72
2021/12/29 11:59:54;;;;;;;;;16.50;14.25;;;;;17.53;66.17;100023.41;146603;643;47008;-72
2021/12/29 12:02:46;;;;;;;;;19.25;17.25;;;;;17.53;65.45;100022.53;146597;655;46031;-72
2021/12/29 12:05:42;;;;;;;;;17.50;17.50;;;;;17.68;66.40;100025.34;146599;583;47008;-72
2021/12/29 12:08:35;;;;;;;;;26.75;22.50;;;;;17.88;66.09;100015.12;146595;622;47917;-71
2021/12/29 12:11:34;;;;;;;;;18.00;18.00;;;;;18.03;64.44;100011.75;146599;595;46020;-72
2021/12/29 12:14:36;;;;;;;;;21.25;19.00;;;;;18.13;64.55;100017.97;146599;609;46017;-71
2021/12/29 12:17:28;;;;;;;;;19.25;18.25;;;;;18.29;64.30;100024.25;146601;626;46008;-71
2021/12/29 12:20:20;;;;;;;;;15.25;14.75;;;;;18.48;64.38;100020.03;146600;630;46017;-71
2021/12/29 12:23:16;;;;;;;;;19.25;16.50;;;;;18.77;63.33;100028.16;146603;570;46008;-71
2021/12/29 12:26:13;;;;;;;;;14.00;13.50;;;;;18.91;61.86;100027.37;146599;646;46016;-69
2021/12/29 12:29:16;;;;;;;;;16.50;12.50;;;;;18.96;61.63;100026.50;146598;590;47008;-72
2021/12/29 12:32:21;;;;;;;;;15.75;12.75;;;;;19.18;61.54;100031.00;146600;678;46917;-72
2021/12/29 12:35:15;;;;;;;;;16.75;15.50;;;;;18.47;60.78;99898.38;146602;656;46020;-71
2021/12/29 12:38:36;;;;;;;;;19.25;16.50;;;;;19.33;62.62;100035.47;146598;573;47010;-72
2021/12/29 12:41:28;;;;;;;;;15.75;15.75;;;;;19.34;61.44;100031.97;146603;663;46008;-73
2021/12/29 12:44:22;;;;;;;;;16.00;14.50;;;;;19.35;60.41;100025.84;146597;663;47010;-72
2021/12/29 12:47:18;;;;;;;;;21.00;16.25;;;;;19.41;60.09;100024.97;146600;580;46020;-73
2021/12/29 12:50:11;;;;;;;;;19.25;16.25;;;;;19.49;60.51;100025.91;146597;575;46029;-72
2021/12/29 12:53:04;;;;;;;;;24.75;23.50;;;;;19.64;60.10;100031.25;146601;564;46020;-72
2021/12/29 12:55:57;;;;;;;;;22.75;19.25;;;;;19.79;59.84;100025.16;146598;575;46024;-72
2021/12/29 12:58:55;;;;;;;;;18.50;17.00;;;;;19.76;59.40;100030.41;146599;663;46008;-72
2021/12/29 13:01:52;;;;;;;;;17.00;16.00;;;;;19.54;58.88;100038.19;146598;678;47010;-72
2021/12/29 13:05:18;;;;;;;;;29.00;26.00;;;;;19.14;61.39;100032.75;146604;636;46008;-73
2021/12/29 13:08:13;;;;;;;;;28.00;22.75;;;;;18.82;60.72;100031.69;146598;627;46010;-71
2021/12/29 13:11:14;;;;;;;;;25.00;25.00;;;;;17.65;60.72;99893.34;146603;600;46020;-73
2021/12/29 13:14:09;;;;;;;;;32.50;29.50;;;;;18.12;61.90;100032.81;146597;625;46918;-71
2021/12/29 13:17:02;;;;;;;;;34.00;30.50;;;;;18.18;62.57;100025.00;146598;607;47008;-72